createdAt,value
2022-08-26T00:01:10.814Z,97786.00
2022-08-26T00:03:45.777Z,97792.00
2022-08-26T00:06:20.980Z,97782.00
2022-08-26T00:08:56.031Z,97775.00
2022-08-26T00:11:31.074Z,97771.00
2022-08-26T00:14:06.058Z,97778.00
2022-08-26T00:16:48.042Z,97772.00
2022-08-26T00:19:23.886Z,97774.00
2022-08-26T00:21:58.968Z,97769.00
2022-08-26T00:24:34.626Z,97776.00
2022-08-26T00:27:09.587Z,97772.00
2022-08-26T00:29:45.073Z,97779.00
2022-08-26T00:32:20.062Z,97765.00
2022-08-26T00:34:55.068Z,97776.00
2022-08-26T00:37:30.020Z,97771.00
2022-08-26T00:40:11.340Z,97774.00
2022-08-26T00:42:46.601Z,97776.00
2022-08-26T00:45:23.900Z,97776.00
2022-08-26T00:48:03.789Z,97769.00
2022-08-26T00:50:43.314Z,97776.00
2022-08-26T00:53:24.192Z,97783.00
2022-08-26T00:56:18.277Z,97787.00
2022-08-26T00:58:56.983Z,97790.00
2022-08-26T01:01:32.463Z,97791.00
2022-08-26T01:04:10.196Z,97789.00
2022-08-26T01:06:46.770Z,97789.00
2022-08-26T01:09:23.638Z,97783.00
2022-08-26T01:12:02.341Z,97785.00
2022-08-26T01:14:40.159Z,97783.00
2022-08-26T01:17:15.256Z,97784.00
2022-08-26T01:20:01.451Z,97790.00
2022-08-26T01:22:55.542Z,97786.00
2022-08-26T01:25:33.817Z,97780.00
2022-08-26T01:28:16.363Z,97777.00
2022-08-26T01:30:55.999Z,97772.00
2022-08-26T01:33:54.858Z,97779.00
2022-08-26T01:36:31.422Z,97780.00
2022-08-26T01:39:07.753Z,97780.00
2022-08-26T01:41:44.158Z,97775.00
2022-08-26T01:44:25.683Z,97782.00
2022-08-26T01:47:02.213Z,97774.00
2022-08-26T01:49:44.426Z,97780.00
2022-08-26T01:52:27.581Z,97777.00
2022-08-26T01:55:05.273Z,97775.00
2022-08-26T01:57:44.883Z,97776.00
2022-08-26T02:00:19.874Z,97777.00
2022-08-26T02:03:16.482Z,97783.00
2022-08-26T02:06:00.813Z,97782.00
2022-08-26T02:08:46.923Z,97787.00
2022-08-26T02:11:22.641Z,97792.00
2022-08-26T02:14:11.155Z,97784.00
2022-08-26T02:16:50.210Z,97784.00
2022-08-26T02:19:30.872Z,97783.00
2022-08-26T02:22:14.242Z,97779.00
2022-08-26T02:25:08.213Z,97781.00
2022-08-26T02:27:43.530Z,97787.00
2022-08-26T02:30:28.075Z,97786.00
2022-08-26T02:33:06.881Z,97777.00
2022-08-26T02:35:43.274Z,97787.00
2022-08-26T02:38:18.313Z,97785.00
2022-08-26T02:40:53.365Z,97780.00
2022-08-26T02:43:32.721Z,97775.00
2022-08-26T02:46:08.011Z,97776.00
2022-08-26T02:48:43.742Z,97767.00
2022-08-26T02:51:18.723Z,97768.00
2022-08-26T02:53:54.076Z,97767.00
2022-08-26T02:56:33.718Z,97773.00
2022-08-26T02:59:15.414Z,97771.00
2022-08-26T03:01:50.547Z,97776.00
2022-08-26T03:04:25.854Z,97771.00
2022-08-26T03:07:01.438Z,97766.00
2022-08-26T03:09:36.427Z,97770.00
2022-08-26T03:12:12.002Z,97768.00
2022-08-26T03:14:49.026Z,97768.00
2022-08-26T03:17:23.994Z,97762.00
2022-08-26T03:20:02.688Z,97755.00
2022-08-26T03:22:40.204Z,97755.00
2022-08-26T03:25:16.726Z,97754.00
2022-08-26T03:27:53.538Z,97755.00
2022-08-26T03:30:45.103Z,97754.00
2022-08-26T03:33:20.702Z,97752.00
2022-08-26T03:35:55.678Z,97754.00
2022-08-26T03:38:32.566Z,97756.00
2022-08-26T03:41:09.698Z,97760.00
2022-08-26T03:43:45.514Z,97754.00
2022-08-26T03:46:22.869Z,97765.00
2022-08-26T03:49:05.158Z,97758.00
2022-08-26T03:51:40.517Z,97761.00
2022-08-26T03:54:17.970Z,97759.00
2022-08-26T03:56:53.592Z,97756.00
2022-08-26T03:59:28.729Z,97765.00
2022-08-26T04:02:03.798Z,97769.00
2022-08-26T04:04:46.473Z,97769.00
2022-08-26T04:07:21.679Z,97765.00
2022-08-26T04:09:58.892Z,97770.00
2022-08-26T04:12:34.305Z,97770.00
2022-08-26T04:15:14.008Z,97768.00
2022-08-26T04:17:49.532Z,97771.00
2022-08-26T04:20:26.622Z,97772.00
2022-08-26T04:23:01.747Z,97777.00
2022-08-26T04:25:36.942Z,97770.00
2022-08-26T04:28:15.623Z,97770.00
2022-08-26T04:30:51.112Z,97767.00
2022-08-26T04:33:32.262Z,97759.00
2022-08-26T04:36:09.005Z,97769.00
2022-08-26T04:38:45.723Z,97757.00
2022-08-26T04:41:21.209Z,97761.00
2022-08-26T04:43:57.028Z,97756.00
2022-08-26T04:46:33.655Z,97759.00
2022-08-26T04:49:09.638Z,97750.00
2022-08-26T04:51:47.050Z,97756.00
2022-08-26T04:54:22.256Z,97766.00
2022-08-26T04:56:57.474Z,97767.00
2022-08-26T04:59:36.022Z,97765.00
2022-08-26T05:02:14.200Z,97772.00
2022-08-26T05:04:49.411Z,97757.00
2022-08-26T05:07:27.067Z,97767.00
2022-08-26T05:10:03.892Z,97771.00
2022-08-26T05:12:44.363Z,97759.00
2022-08-26T05:15:19.546Z,97771.00
2022-08-26T05:17:54.634Z,97773.00
2022-08-26T05:20:30.060Z,97774.00
2022-08-26T05:23:05.264Z,97773.00
2022-08-26T05:25:48.304Z,97774.00
2022-08-26T05:28:23.525Z,97770.00
2022-08-26T05:30:59.563Z,97775.00
2022-08-26T05:33:35.070Z,97774.00
2022-08-26T05:36:15.182Z,97775.00
2022-08-26T05:38:50.568Z,97776.00
2022-08-26T05:41:36.042Z,97774.00
2022-08-26T05:44:15.050Z,97779.00
2022-08-26T05:46:51.888Z,97786.00
2022-08-26T05:49:26.854Z,97787.00
2022-08-26T05:52:01.826Z,97786.00
2022-08-26T05:54:39.713Z,97782.00
2022-08-26T05:57:14.754Z,97784.00
2022-08-26T05:59:49.845Z,97792.00
2022-08-26T06:02:24.879Z,97790.00
2022-08-26T06:05:00.994Z,97794.00
2022-08-26T06:07:54.734Z,97796.00
2022-08-26T06:10:32.787Z,97792.00
2022-08-26T06:13:11.942Z,97790.00
2022-08-26T06:15:50.130Z,97796.00
2022-08-26T06:18:36.437Z,97801.00
2022-08-26T06:21:42.690Z,97796.00
2022-08-26T06:24:36.881Z,97810.00
2022-08-26T06:27:15.176Z,97805.00
2022-08-26T06:29:51.531Z,97810.00
2022-08-26T06:32:26.574Z,97808.00
2022-08-26T06:35:01.653Z,97821.00
2022-08-26T06:37:36.732Z,97814.00
2022-08-26T06:40:12.179Z,97812.00
2022-08-26T06:42:47.276Z,97818.00
2022-08-26T06:45:22.412Z,97818.00
2022-08-26T06:47:57.490Z,97828.00
2022-08-26T06:50:34.273Z,97812.00
2022-08-26T06:53:11.179Z,97812.00
2022-08-26T06:55:46.853Z,97822.00
2022-08-26T06:58:26.725Z,97819.00
2022-08-26T07:01:04.426Z,97814.00
2022-08-26T07:03:48.259Z,97814.00
2022-08-26T07:06:24.633Z,97811.00
2022-08-26T07:09:06.388Z,97811.00
2022-08-26T07:11:45.797Z,97816.00
2022-08-26T07:14:21.793Z,97817.00
2022-08-26T07:16:57.312Z,97822.00
2022-08-26T07:19:32.314Z,97827.00
2022-08-26T07:22:08.648Z,97823.00
2022-08-26T07:24:45.653Z,97825.00
2022-08-26T07:27:21.162Z,97826.00
2022-08-26T07:29:57.436Z,97828.00
2022-08-26T07:32:33.232Z,97821.00
2022-08-26T07:35:08.758Z,97818.00
2022-08-26T07:37:43.775Z,97828.00
2022-08-26T07:40:19.154Z,97822.00
2022-08-26T07:42:55.315Z,97827.00
2022-08-26T07:45:30.311Z,97828.00
2022-08-26T07:48:05.971Z,97833.00
2022-08-26T07:50:50.256Z,97830.00
2022-08-26T07:53:25.867Z,97835.00
2022-08-26T07:56:01.049Z,97833.00
2022-08-26T07:58:36.277Z,97828.00
2022-08-26T08:01:12.368Z,97833.00
2022-08-26T08:03:51.554Z,97832.00
2022-08-26T08:06:28.259Z,97839.00
2022-08-26T08:09:06.687Z,97837.00
2022-08-26T08:11:42.506Z,97842.00
2022-08-26T08:14:22.049Z,97839.00
2022-08-26T08:16:57.637Z,97834.00
2022-08-26T08:19:39.102Z,97827.00
2022-08-26T08:22:19.936Z,97839.00
2022-08-26T08:24:56.833Z,97834.00
2022-08-26T08:27:38.183Z,97833.00
2022-08-26T08:30:15.092Z,97837.00
2022-08-26T08:32:56.292Z,97835.00
2022-08-26T08:35:31.306Z,97832.00
2022-08-26T08:38:06.486Z,97824.00
2022-08-26T08:40:45.686Z,97820.00
2022-08-26T08:43:29.478Z,97817.00
2022-08-26T08:46:12.932Z,97822.00
2022-08-26T08:48:54.566Z,97819.00
2022-08-26T08:51:38.735Z,97812.00
2022-08-26T08:54:14.295Z,97813.00
2022-08-26T08:57:03.754Z,97817.00
2022-08-26T08:59:59.546Z,97811.00
2022-08-26T09:02:46.237Z,97813.00
2022-08-26T09:05:31.649Z,97808.00
2022-08-26T09:08:20.171Z,97804.00
2022-08-26T09:11:01.485Z,97811.00
2022-08-26T09:13:38.746Z,97805.00
2022-08-26T09:16:41.395Z,97793.00
2022-08-26T09:19:40.025Z,97809.00
2022-08-26T09:22:35.487Z,97800.00
2022-08-26T09:25:14.143Z,97802.00
2022-08-26T09:27:52.501Z,97799.00
2022-08-26T09:30:35.363Z,97797.00
2022-08-26T09:33:18.201Z,97793.00
2022-08-26T09:36:16.510Z,97789.00
2022-08-26T09:38:54.061Z,97794.00
2022-08-26T09:41:33.273Z,97786.00
2022-08-26T09:44:18.335Z,97777.00
2022-08-26T09:47:06.075Z,97782.00
2022-08-26T09:49:41.764Z,97771.00
2022-08-26T09:52:27.466Z,97762.00
2022-08-26T09:55:21.607Z,97758.00
2022-08-26T09:57:57.534Z,97747.00
2022-08-26T10:00:57.303Z,97745.00
2022-08-26T10:03:36.294Z,97746.00
2022-08-26T10:06:17.606Z,97742.00
2022-08-26T10:09:05.582Z,97739.00
2022-08-26T10:11:50.158Z,97747.00
2022-08-26T10:14:31.825Z,97739.00
2022-08-26T10:17:24.883Z,97734.00
2022-08-26T10:20:22.938Z,97728.00
2022-08-26T10:23:02.905Z,97718.00
2022-08-26T10:26:05.618Z,97718.00
2022-08-26T10:28:58.044Z,97717.00
2022-08-26T10:31:51.418Z,97725.00
2022-08-26T10:34:27.086Z,97724.00
2022-08-26T10:37:20.420Z,97720.00
2022-08-26T10:40:02.383Z,97726.00
2022-08-26T10:42:44.766Z,97720.00
2022-08-26T10:45:26.557Z,97712.00
2022-08-26T10:48:12.403Z,97716.00
2022-08-26T10:50:48.728Z,97712.00
2022-08-26T10:53:33.748Z,97708.00
2022-08-26T10:56:38.193Z,97698.00
2022-08-26T10:59:31.083Z,97692.00
2022-08-26T11:02:31.744Z,97688.00
2022-08-26T11:05:23.601Z,97686.00
2022-08-26T11:08:20.445Z,97681.00
2022-08-26T11:10:59.557Z,97678.00
2022-08-26T11:13:56.696Z,97674.00
2022-08-26T11:16:52.941Z,97675.00
2022-08-26T11:19:59.658Z,97686.00
2022-08-26T11:22:47.527Z,97689.00
2022-08-26T11:25:30.004Z,97685.00
2022-08-26T11:28:06.084Z,97667.00
2022-08-26T11:30:43.777Z,97672.00
2022-08-26T11:33:51.845Z,97678.00
2022-08-26T11:36:51.001Z,97669.00
2022-08-26T11:39:53.998Z,97662.00
2022-08-26T11:42:49.093Z,97664.00
2022-08-26T11:45:59.625Z,97663.00
2022-08-26T11:48:38.789Z,97661.00
2022-08-26T11:51:24.409Z,97652.00
2022-08-26T11:54:30.777Z,97655.00
2022-08-26T11:57:13.540Z,97657.00
2022-08-26T11:59:48.712Z,97661.00
2022-08-26T12:02:24.211Z,97667.00
2022-08-26T12:05:00.514Z,97676.00
2022-08-26T12:07:35.603Z,97675.00
2022-08-26T12:10:11.435Z,97671.00
2022-08-26T12:12:55.112Z,97664.00
2022-08-26T12:15:32.373Z,97664.00
2022-08-26T12:18:28.885Z,97672.00
2022-08-26T12:21:29.323Z,97663.00
2022-08-26T12:24:09.866Z,97661.00
2022-08-26T12:26:45.492Z,97663.00
2022-08-26T12:29:28.306Z,97659.00
2022-08-26T12:32:14.912Z,97659.00
2022-08-26T12:34:50.168Z,97648.00
2022-08-26T12:37:28.143Z,97649.00
2022-08-26T12:40:35.411Z,97643.00
2022-08-26T12:43:15.865Z,97648.00
2022-08-26T12:46:02.144Z,97649.00
2022-08-26T12:48:41.222Z,97648.00
2022-08-26T12:51:26.652Z,97646.00
2022-08-26T12:54:06.631Z,97647.00
2022-08-26T12:56:41.692Z,97648.00
2022-08-26T12:59:25.768Z,97641.00
2022-08-26T13:02:00.946Z,97631.00
2022-08-26T13:04:41.036Z,97634.00
2022-08-26T13:07:24.318Z,97621.00
2022-08-26T13:10:00.888Z,97623.00
2022-08-26T13:12:37.418Z,97620.00
2022-08-26T13:15:12.549Z,97612.00
2022-08-26T13:17:47.736Z,97615.00
2022-08-26T13:20:22.976Z,97615.00
2022-08-26T13:22:59.464Z,97620.00
2022-08-26T13:25:34.573Z,97607.00
2022-08-26T13:28:09.579Z,97607.00
2022-08-26T13:30:48.132Z,97606.00
2022-08-26T13:33:23.088Z,97614.00
2022-08-26T13:35:59.871Z,97601.00
2022-08-26T13:38:34.962Z,97610.00
2022-08-26T13:41:11.281Z,97605.00
2022-08-26T13:43:48.757Z,97606.00
2022-08-26T13:46:23.763Z,97609.00
2022-08-26T13:48:59.222Z,97617.00
2022-08-26T13:51:34.398Z,97604.00
2022-08-26T13:54:09.525Z,97611.00
2022-08-26T13:56:45.173Z,97611.00
2022-08-26T13:59:20.129Z,97609.00
2022-08-26T14:01:55.180Z,97609.00
2022-08-26T14:04:30.308Z,97600.00
2022-08-26T14:07:05.325Z,97598.00
2022-08-26T14:09:40.605Z,97592.00
2022-08-26T14:12:16.514Z,97593.00
2022-08-26T14:14:51.652Z,97594.00
2022-08-26T14:17:27.154Z,97587.00
2022-08-26T14:20:09.153Z,97586.00
2022-08-26T14:23:03.411Z,97577.00
2022-08-26T14:25:40.302Z,97585.00
2022-08-26T14:28:16.027Z,97586.00
2022-08-26T14:30:58.125Z,97587.00
2022-08-26T14:33:38.223Z,97581.00
2022-08-26T14:36:28.108Z,97582.00
2022-08-26T14:39:11.148Z,97583.00
2022-08-26T14:41:54.379Z,97580.00
2022-08-26T14:44:33.088Z,97583.00
2022-08-26T14:47:08.471Z,97586.00
2022-08-26T14:49:43.555Z,97581.00
2022-08-26T14:52:18.607Z,97593.00
2022-08-26T14:54:54.929Z,97591.00
2022-08-26T14:57:30.540Z,97581.00
2022-08-26T15:00:06.700Z,97580.00
2022-08-26T15:02:42.435Z,97575.00
2022-08-26T15:05:18.289Z,97568.00
2022-08-26T15:07:53.524Z,97558.00
2022-08-26T15:10:28.533Z,97568.00
2022-08-26T15:13:03.583Z,97571.00
2022-08-26T15:15:38.730Z,97573.00
2022-08-26T15:18:13.827Z,97569.00
2022-08-26T15:20:49.095Z,97573.00
2022-08-26T15:23:24.126Z,97578.00
2022-08-26T15:25:59.231Z,97579.00
2022-08-26T15:28:34.645Z,97582.00
2022-08-26T15:31:10.295Z,97587.00
2022-08-26T15:33:45.926Z,97584.00
2022-08-26T15:36:21.028Z,97586.00
2022-08-26T15:38:58.894Z,97581.00
2022-08-26T15:41:34.940Z,97576.00
2022-08-26T15:44:11.870Z,97580.00
2022-08-26T15:46:49.600Z,97572.00
2022-08-26T15:49:24.826Z,97593.00
2022-08-26T15:51:59.964Z,97633.00
2022-08-26T15:54:35.533Z,97621.00
2022-08-26T15:57:12.364Z,97600.00
2022-08-26T15:59:48.875Z,97636.00
2022-08-26T16:02:27.251Z,97660.00
2022-08-26T16:05:04.417Z,97642.00
2022-08-26T16:07:40.445Z,97664.00
2022-08-26T16:10:15.380Z,97672.00
2022-08-26T16:12:50.783Z,97684.00
2022-08-26T16:15:25.760Z,97684.00
2022-08-26T16:18:02.306Z,97677.00
2022-08-26T16:20:56.020Z,97697.00
2022-08-26T16:23:45.078Z,97689.00
2022-08-26T16:26:25.725Z,97681.00
2022-08-26T16:29:09.131Z,97714.00
2022-08-26T16:31:44.150Z,97729.00
2022-08-26T16:34:19.292Z,97751.00
2022-08-26T16:36:54.368Z,97755.00
2022-08-26T16:39:29.405Z,97738.00
2022-08-26T16:42:05.204Z,97738.00
2022-08-26T16:44:46.524Z,97738.00
2022-08-26T16:47:23.088Z,97735.00
2022-08-26T16:49:58.280Z,97721.00
2022-08-26T16:52:34.106Z,97729.00
2022-08-26T16:55:14.415Z,97728.00
2022-08-26T16:57:51.558Z,97741.00
2022-08-26T17:00:30.391Z,97740.00
2022-08-26T17:03:05.700Z,97746.00
2022-08-26T17:05:40.692Z,97728.00
2022-08-26T17:08:24.256Z,97731.00
2022-08-26T17:11:02.713Z,97725.00
2022-08-26T17:13:39.034Z,97698.00
2022-08-26T17:16:14.884Z,97717.00
2022-08-26T17:18:50.163Z,97688.00
2022-08-26T17:21:27.886Z,97675.00
2022-08-26T17:24:05.270Z,97685.00
2022-08-26T17:26:44.206Z,97680.00
2022-08-26T17:29:23.439Z,97668.00
2022-08-26T17:31:58.617Z,97678.00
2022-08-26T17:34:33.849Z,97677.00
2022-08-26T17:37:08.898Z,97688.00
2022-08-26T17:39:44.147Z,97687.00
2022-08-26T17:42:19.247Z,97686.00
2022-08-26T17:44:55.280Z,97692.00
2022-08-26T17:47:32.074Z,97691.00
2022-08-26T17:50:11.304Z,97681.00
2022-08-26T17:52:46.714Z,97682.00
2022-08-26T17:55:22.057Z,97679.00
2022-08-26T17:57:59.373Z,97678.00
2022-08-26T18:00:36.376Z,97671.00
2022-08-26T18:03:11.789Z,97668.00
2022-08-26T18:05:52.061Z,97665.00
2022-08-26T18:08:27.173Z,97651.00
2022-08-26T18:11:02.944Z,97647.00
2022-08-26T18:13:38.872Z,97663.00
2022-08-26T18:16:22.439Z,97674.00
2022-08-26T18:18:58.369Z,97682.00
2022-08-26T18:21:33.403Z,97695.00
2022-08-26T18:24:13.376Z,97708.00
2022-08-26T18:26:50.883Z,97716.00
2022-08-26T18:29:26.046Z,97735.00
2022-08-26T18:32:01.327Z,97766.00
2022-08-26T18:34:36.652Z,97800.00
2022-08-26T18:39:48.690Z,97808.00
2022-08-26T18:42:23.993Z,97833.00
2022-08-26T18:44:58.975Z,97829.00
2022-08-26T18:47:34.205Z,97823.00
2022-08-26T18:50:11.177Z,97815.00
2022-08-26T18:52:46.168Z,97819.00
2022-08-26T18:55:21.517Z,97830.00
2022-08-26T18:57:56.392Z,97834.00
2022-08-26T19:00:31.573Z,97818.00
2022-08-26T19:03:08.308Z,97826.00
2022-08-26T19:05:54.090Z,97819.00
2022-08-26T19:08:28.982Z,97824.00
2022-08-26T19:11:04.525Z,97824.00
2022-08-26T19:13:42.930Z,97812.00
2022-08-26T19:16:21.118Z,97815.00
2022-08-26T19:18:58.301Z,97821.00
2022-08-26T19:21:35.613Z,97816.00
2022-08-26T19:24:17.169Z,97817.00
2022-08-26T19:26:57.934Z,97818.00
2022-08-26T19:29:35.461Z,97814.00
2022-08-26T19:32:10.362Z,97821.00
2022-08-26T19:34:45.296Z,97830.00
2022-08-26T19:37:21.149Z,97822.00
2022-08-26T19:39:56.138Z,97819.00
2022-08-26T19:42:31.051Z,97817.00
2022-08-26T19:45:20.225Z,97816.00
2022-08-26T19:48:00.614Z,97819.00
2022-08-26T19:50:35.714Z,97818.00
2022-08-26T19:53:10.591Z,97823.00
2022-08-26T19:55:45.459Z,97829.00
2022-08-26T19:58:20.349Z,97824.00
2022-08-26T20:00:55.291Z,97828.00
2022-08-26T20:03:30.574Z,97821.00
2022-08-26T20:06:08.478Z,97830.00
2022-08-26T20:08:44.733Z,97838.00
2022-08-26T20:11:19.675Z,97834.00
2022-08-26T20:13:55.218Z,97837.00
2022-08-26T20:16:30.319Z,97841.00
2022-08-26T20:19:23.687Z,97839.00
2022-08-26T20:21:58.600Z,97844.00
2022-08-26T20:24:35.547Z,97835.00
2022-08-26T20:27:10.440Z,97825.00
2022-08-26T20:29:45.466Z,97827.00
2022-08-26T20:32:20.474Z,97814.00
2022-08-26T20:34:55.709Z,97813.00
2022-08-26T20:37:31.913Z,97811.00
2022-08-26T20:40:09.395Z,97816.00
2022-08-26T20:42:44.325Z,97818.00
2022-08-26T20:45:19.342Z,97829.00
2022-08-26T20:47:54.835Z,97830.00
2022-08-26T20:50:32.591Z,97833.00
2022-08-26T20:53:08.900Z,97834.00
2022-08-26T20:55:43.791Z,97820.00
2022-08-26T20:58:19.198Z,97830.00
2022-08-26T21:00:54.451Z,97828.00
2022-08-26T21:03:30.623Z,97833.00
2022-08-26T21:06:05.927Z,97842.00
2022-08-26T21:08:42.620Z,97842.00
2022-08-26T21:11:18.769Z,97847.00
2022-08-26T21:14:16.197Z,97852.00
2022-08-26T21:16:48.883Z,97852.00
2022-08-26T21:19:23.844Z,97856.00
2022-08-26T21:21:59.340Z,97850.00
2022-08-26T21:24:34.237Z,97847.00
2022-08-26T21:27:09.107Z,97843.00
2022-08-26T21:29:44.017Z,97847.00
2022-08-26T21:32:23.554Z,97848.00
2022-08-26T21:34:59.881Z,97851.00
2022-08-26T21:37:34.794Z,97846.00
2022-08-26T21:40:10.514Z,97849.00
2022-08-26T21:42:45.550Z,97848.00
2022-08-26T21:45:20.530Z,97846.00
2022-08-26T21:47:55.543Z,97851.00
2022-08-26T21:50:30.533Z,97855.00
2022-08-26T21:53:05.641Z,97858.00
2022-08-26T21:55:42.173Z,97862.00
2022-08-26T21:58:17.043Z,97859.00
2022-08-26T22:00:52.043Z,97849.00
2022-08-26T22:03:27.117Z,97847.00
2022-08-26T22:06:02.051Z,97838.00
2022-08-26T22:08:37.225Z,97845.00
2022-08-26T22:11:13.168Z,97850.00
2022-08-26T22:13:49.436Z,97853.00
2022-08-26T22:16:26.712Z,97853.00
2022-08-26T22:19:02.005Z,97853.00
2022-08-26T22:21:37.369Z,97848.00
2022-08-26T22:24:12.512Z,97847.00
2022-08-26T22:26:48.642Z,97840.00
2022-08-26T22:29:25.039Z,97853.00
2022-08-26T22:32:00.963Z,97860.00
2022-08-26T22:34:35.906Z,97862.00
2022-08-26T22:37:11.504Z,97873.00
2022-08-26T22:39:46.451Z,97869.00
2022-08-26T22:42:21.654Z,97870.00
2022-08-26T22:44:56.516Z,97879.00
2022-08-26T22:47:33.140Z,97880.00
2022-08-26T22:50:10.677Z,97878.00
2022-08-26T22:52:45.539Z,97884.00
2022-08-26T22:55:20.411Z,97877.00
2022-08-26T22:57:55.304Z,97883.00
2022-08-26T23:00:32.447Z,97887.00
2022-08-26T23:03:07.830Z,97881.00
2022-08-26T23:05:44.438Z,97878.00
2022-08-26T23:08:21.297Z,97890.00
2022-08-26T23:10:56.302Z,97880.00
2022-08-26T23:13:31.427Z,97880.00
2022-08-26T23:16:10.885Z,97881.00
2022-08-26T23:18:45.886Z,97878.00
2022-08-26T23:21:20.957Z,97880.00
2022-08-26T23:23:56.298Z,97878.00
2022-08-26T23:26:31.826Z,97869.00
2022-08-26T23:29:09.896Z,97872.00
2022-08-26T23:31:45.004Z,97859.00
2022-08-26T23:34:39.072Z,97858.00
2022-08-26T23:37:14.130Z,97854.00
2022-08-26T23:39:50.590Z,97854.00
2022-08-26T23:42:25.547Z,97850.00
2022-08-26T23:45:09.990Z,97839.00
2022-08-26T23:47:45.548Z,97844.00
2022-08-26T23:50:45.028Z,97845.00
2022-08-26T23:53:22.385Z,97844.00
2022-08-26T23:55:57.275Z,97837.00
2022-08-26T23:58:32.138Z,97842.00
